Time;durP1;ratioP1;P1;durP2;ratioP2;P2;SDS_P1;SDS_P2;PMS_P1;PMS_P2;Temp;Humidity;BMP_temperature;BMP_pressure;BME280_temperature;BME280_humidity;BME280_pressure;Samples;Min_cycle;Max_cycle;Signal;HPM_P1;HPM_P2
2022/07/16 00:03:47;;;;;;;6.67;2.90;;;;;14.90;101686.00;;;;10446257;28;20232;-80
2022/07/16 00:08:50;;;;;;;5.37;2.90;;;;;14.90;101683.00;;;;10442164;28;20189;-79
2022/07/16 00:13:52;;;;;;;5.23;3.00;;;;;14.80;101678.00;;;;10462585;28;20192;-80
2022/07/16 00:24:16;;;;;;;3.87;2.50;;;;;14.70;101679.00;;;;10436815;28;20185;-80
2022/07/16 00:29:20;;;;;;;5.93;2.87;;;;;14.70;101678.00;;;;10462840;28;20284;-80
2022/07/16 00:34:23;;;;;;;3.50;2.77;;;;;14.60;101674.00;;;;10445738;28;20218;-80
2022/07/16 00:39:25;;;;;;;3.40;2.70;;;;;14.60;101672.00;;;;10462184;28;20181;-80
2022/07/16 00:44:27;;;;;;;5.37;2.77;;;;;14.50;101681.00;;;;10462605;28;20216;-80
2022/07/16 00:49:29;;;;;;;3.93;2.93;;;;;14.50;101675.00;;;;10462135;28;20239;-80
2022/07/16 00:54:31;;;;;;;4.57;3.07;;;;;14.50;101682.00;;;;10460305;28;20236;-80
2022/07/16 00:59:33;;;;;;;6.10;2.80;;;;;14.50;101684.00;;;;10461990;28;20275;-80
2022/07/16 01:04:35;;;;;;;5.43;2.90;;;;;14.40;101677.00;;;;10462210;28;20201;-80
2022/07/16 01:09:39;;;;;;;6.13;3.30;;;;;14.40;101675.00;;;;10444967;28;20197;-80
2022/07/16 01:14:42;;;;;;;4.57;3.07;;;;;14.40;101682.00;;;;10445563;28;20264;-80
2022/07/16 01:19:43;;;;;;;6.57;3.47;;;;;14.30;101675.00;;;;10447302;28;20189;-80
2022/07/16 01:24:47;;;;;;;6.17;2.90;;;;;14.30;101666.00;;;;10436399;28;20193;-80
2022/07/16 01:29:49;;;;;;;6.07;3.10;;;;;14.20;101675.00;;;;10469750;28;20202;-80
2022/07/16 01:34:51;;;;;;;8.00;3.57;;;;;14.10;101660.00;;;;10459244;28;20766;-80
2022/07/16 01:39:52;;;;;;;5.97;3.70;;;;;14.00;101670.00;;;;10436631;28;20189;-79
2022/07/16 01:44:56;;;;;;;4.23;3.53;;;;;14.00;101663.00;;;;10470402;28;20671;-80
2022/07/16 01:49:59;;;;;;;6.93;3.43;;;;;14.00;101661.00;;;;10435847;28;20711;-80
2022/07/16 01:55:01;;;;;;;9.00;3.23;;;;;14.00;101664.00;;;;10469049;28;20217;-80
2022/07/16 02:00:04;;;;;;;5.97;2.73;;;;;14.00;101662.00;;;;10467513;28;20229;-80
2022/07/16 02:05:12;;;;;;;7.00;3.27;;;;;14.10;101673.00;;;;10468436;28;20198;-80
2022/07/16 02:10:14;;;;;;;7.10;3.60;;;;;14.20;101668.00;;;;10426444;28;20281;-80
2022/07/16 02:15:18;;;;;;;8.70;5.57;;;;;14.20;101658.00;;;;10413676;28;20218;-80
2022/07/16 02:20:20;;;;;;;11.97;5.10;;;;;14.20;101667.00;;;;10394412;28;20244;-80
2022/07/16 02:25:23;;;;;;;6.93;5.60;;;;;14.10;101661.00;;;;10453853;28;20193;-80
2022/07/16 02:30:25;;;;;;;13.23;6.07;;;;;14.00;101663.00;;;;10450020;28;20244;-80
2022/07/16 02:35:27;;;;;;;7.30;5.03;;;;;14.00;101670.00;;;;10466504;28;20676;-80
2022/07/16 02:40:32;;;;;;;3.97;2.97;;;;;14.00;101682.00;;;;10409419;28;20198;-80
2022/07/16 02:45:36;;;;;;;6.57;3.10;;;;;13.80;101696.00;;;;10467801;28;20197;-80
2022/07/16 02:50:39;;;;;;;5.30;3.73;;;;;13.70;101690.00;;;;10448844;28;20243;-80
2022/07/16 02:55:41;;;;;;;5.73;3.17;;;;;13.60;101692.00;;;;10408731;28;20639;-80
2022/07/16 03:00:43;;;;;;;5.50;3.30;;;;;13.60;101693.00;;;;10438439;28;20230;-80
2022/07/16 03:05:45;;;;;;;7.53;3.00;;;;;13.50;101686.00;;;;10412954;28;20213;-80
2022/07/16 03:10:47;;;;;;;7.07;2.53;;;;;13.50;101696.00;;;;10449401;28;20213;-80
2022/07/16 03:15:49;;;;;;;2.53;2.03;;;;;13.50;101693.00;;;;10448489;28;20252;-80
2022/07/16 03:20:51;;;;;;;4.00;2.03;;;;;13.50;101694.00;;;;10464496;28;20264;-80
2022/07/16 03:25:53;;;;;;;5.50;2.20;;;;;13.50;101697.00;;;;10447696;28;20247;-79
2022/07/16 03:30:55;;;;;;;6.37;2.20;;;;;13.60;101699.00;;;;10478345;28;20227;-79
2022/07/16 03:35:57;;;;;;;3.83;2.07;;;;;13.60;101700.00;;;;10406978;28;20301;-79
2022/07/16 03:40:59;;;;;;;5.80;2.70;;;;;13.60;101692.00;;;;10406614;28;20657;-79
2022/07/16 03:46:01;;;;;;;4.00;2.33;;;;;13.60;101701.00;;;;10440646;28;20187;-79
2022/07/16 03:51:04;;;;;;;4.70;2.90;;;;;13.60;101704.00;;;;10450646;28;20190;-79
2022/07/16 03:56:06;;;;;;;8.00;2.53;;;;;13.70;101701.00;;;;10463498;28;20221;-79
2022/07/16 04:01:09;;;;;;;6.07;2.57;;;;;13.80;101714.00;;;;10445885;28;20688;-80
2022/07/16 04:06:11;;;;;;;6.77;2.80;;;;;13.90;101713.00;;;;10474848;28;20186;-80
2022/07/16 04:11:13;;;;;;;5.47;2.20;;;;;14.00;101704.00;;;;10443840;28;20232;-79
2022/07/16 04:16:15;;;;;;;2.63;2.20;;;;;14.20;101709.00;;;;10429469;28;20218;-80
2022/07/16 04:21:17;;;;;;;3.73;2.50;;;;;14.50;101711.00;;;;10429954;28;20268;-79
2022/07/16 04:26:19;;;;;;;4.67;2.73;;;;;14.90;101722.00;;;;10429971;28;20239;-79
2022/07/16 04:31:21;;;;;;;4.67;3.10;;;;;15.30;101727.00;;;;10457119;28;20623;-79
2022/07/16 04:36:23;;;;;;;5.23;3.03;;;;;15.50;101726.00;;;;10420778;28;20225;-80
2022/07/16 04:41:25;;;;;;;8.27;3.10;;;;;15.60;101730.00;;;;10404356;28;20224;-80
2022/07/16 04:46:27;;;;;;;6.33;2.60;;;;;15.60;101738.00;;;;10465315;28;20181;-80
2022/07/16 04:51:29;;;;;;;4.70;3.10;;;;;15.80;101727.00;;;;10462357;28;20217;-80
2022/07/16 04:56:31;;;;;;;7.07;3.80;;;;;16.10;101731.00;;;;10443739;28;20299;-80
2022/07/16 05:01:33;;;;;;;7.07;3.37;;;;;16.60;101732.00;;;;10449425;28;20203;-80
2022/07/16 05:06:35;;;;;;;5.90;3.40;;;;;17.20;101744.00;;;;10428167;28;20209;-80
2022/07/16 05:11:38;;;;;;;8.03;4.33;;;;;17.40;101741.00;;;;10453076;28;20691;-80
2022/07/16 05:16:40;;;;;;;8.33;4.77;;;;;17.50;101746.00;;;;10437761;28;20193;-80
2022/07/16 05:21:41;;;;;;;10.00;4.47;;;;;17.60;101749.00;;;;10429049;28;20190;-80
2022/07/16 05:26:43;;;;;;;9.87;3.87;;;;;17.60;101749.00;;;;10478587;28;20193;-80
2022/07/16 05:31:45;;;;;;;9.87;4.00;;;;;17.70;101744.00;;;;10453329;28;20638;-80
2022/07/16 05:36:47;;;;;;;6.88;3.95;;;;;17.70;101752.00;;;;10422180;28;20216;-80
2022/07/16 05:41:50;;;;;;;6.07;4.65;;;;;17.70;101757.00;;;;10428885;28;20657;-80
2022/07/16 05:46:52;;;;;;;6.73;4.60;;;;;18.10;101761.00;;;;10428595;28;20197;-80
2022/07/16 05:51:54;;;;;;;8.55;4.57;;;;;18.70;101767.00;;;;10442955;28;20226;-80
2022/07/16 05:56:56;;;;;;;8.45;4.50;;;;;19.50;101771.00;;;;10430250;28;20253;-81
2022/07/16 06:01:58;;;;;;;7.90;4.13;;;;;20.10;101776.00;;;;10436724;28;20279;-81
2022/07/16 06:07:00;;;;;;;4.40;4.00;;;;;20.50;101790.00;;;;10425082;28;20186;-80
2022/07/16 06:12:03;;;;;;;6.18;4.13;;;;;20.60;101787.00;;;;10468484;28;20197;-80
2022/07/16 06:17:04;;;;;;;6.47;4.03;;;;;20.70;101789.00;;;;10432494;28;20255;-80
2022/07/16 06:22:06;;;;;;;4.65;3.47;;;;;21.20;101793.00;;;;10401105;28;20206;-78
2022/07/16 06:27:08;;;;;;;8.20;3.97;;;;;21.20;101803.00;;;;10409422;28;20206;-78
2022/07/16 06:32:10;;;;;;;8.65;3.85;;;;;20.80;101804.00;;;;10430430;28;20190;-80
2022/07/16 06:37:12;;;;;;;6.50;3.95;;;;;20.40;101810.00;;;;10392771;28;20829;-78
2022/07/16 06:42:14;;;;;;;5.50;3.53;;;;;21.10;101812.00;;;;10418220;28;20564;-78
2022/07/16 06:47:17;;;;;;;4.68;3.60;;;;;22.10;101807.00;;;;10451574;28;20195;-79
2022/07/16 06:52:19;;;;;;;6.05;3.33;;;;;23.20;101816.00;;;;10465948;28;20716;-79
2022/07/16 06:57:22;;;;;;;5.88;3.65;;;;;22.20;101824.00;;;;10408024;28;20217;-79
2022/07/16 07:02:24;;;;;;;6.63;3.65;;;;;21.60;101844.00;;;;10466919;28;20214;-79
2022/07/16 07:07:26;;;;;;;4.95;3.10;;;;;21.90;101841.00;;;;10438480;28;20212;-78
2022/07/16 07:12:28;;;;;;;5.95;3.60;;;;;22.90;101835.00;;;;10405566;28;20202;-79
2022/07/16 07:17:30;;;;;;;4.95;3.00;;;;;23.30;101845.00;;;;10464199;28;20279;-79
2022/07/16 07:22:32;;;;;;;3.95;2.53;;;;;23.80;101845.00;;;;10443654;28;20657;-79
2022/07/16 07:27:34;;;;;;;4.00;3.60;;;;;24.10;101847.00;;;;10412439;28;20190;-80
2022/07/16 07:32:36;;;;;;;4.57;3.38;;;;;24.30;101854.00;;;;10451684;28;20235;-79
2022/07/16 07:37:39;;;;;;;7.47;4.07;;;;;23.60;101862.00;;;;10437311;28;20212;-79
2022/07/16 07:42:41;;;;;;;7.13;3.90;;;;;24.80;101861.00;;;;10430116;28;20201;-80
2022/07/16 07:47:43;;;;;;;5.50;3.00;;;;;26.40;101880.00;;;;10407111;28;20252;-80
2022/07/16 07:52:45;;;;;;;3.92;2.40;;;;;25.00;101882.00;;;;10391922;28;20206;-80
2022/07/16 07:57:47;;;;;;;6.68;2.10;;;;;24.60;101891.00;;;;10403351;28;20213;-80
2022/07/16 08:02:50;;;;;;;2.55;1.67;;;;;24.70;101884.00;;;;10432081;28;20207;-80
2022/07/16 08:07:52;;;;;;;3.97;1.55;;;;;27.10;101878.00;;;;10428200;28;20239;-80
2022/07/16 08:12:54;;;;;;;1.30;1.17;;;;;27.40;101900.00;;;;10462949;28;20197;-80
2022/07/16 08:17:56;;;;;;;1.90;1.10;;;;;26.90;101878.00;;;;10439955;28;20211;-80
2022/07/16 08:22:58;;;;;;;2.95;1.00;;;;;27.60;101888.00;;;;10420214;28;20257;-80
2022/07/16 08:28:01;;;;;;;2.78;0.90;;;;;27.80;101893.00;;;;10444699;28;20251;-79
2022/07/16 08:33:03;;;;;;;1.90;0.98;;;;;28.50;101872.00;;;;10416948;28;20213;-81
2022/07/16 08:38:05;;;;;;;2.75;1.65;;;;;28.60;101890.00;;;;10423033;28;20213;-81
2022/07/16 08:43:09;;;;;;;4.03;2.20;;;;;28.80;101898.00;;;;10431445;28;20273;-81
2022/07/16 08:48:13;;;;;;;3.08;1.30;;;;;27.90;101905.00;;;;10470438;28;20190;-81
2022/07/16 08:53:19;;;;;;;1.73;1.05;;;;;28.10;101900.00;;;;10446788;28;20189;-81
2022/07/16 08:58:22;;;;;;;1.52;1.13;;;;;29.70;101907.00;;;;10434134;28;20216;-81
2022/07/16 09:03:25;;;;;;;3.20;1.27;;;;;29.90;101919.00;;;;10437036;28;20192;-81
2022/07/16 09:08:27;;;;;;;1.63;0.95;;;;;30.90;101912.00;;;;10446447;28;20231;-81
2022/07/16 09:13:30;;;;;;;4.18;1.10;;;;;30.90;101923.00;;;;10419596;28;20667;-81
2022/07/16 09:18:32;;;;;;;1.65;1.08;;;;;29.60;101911.00;;;;10456149;28;20208;-81
2022/07/16 09:23:36;;;;;;;2.63;1.23;;;;;31.10;101926.00;;;;10456752;28;20208;-81
2022/07/16 09:28:44;;;;;;;2.08;0.98;;;;;32.10;101929.00;;;;10468672;28;20182;-81
2022/07/16 09:34:03;;;;;;;2.15;1.00;;;;;32.00;101924.00;;;;10410446;28;20205;-81
2022/07/16 09:39:10;;;;;;;3.53;0.90;;;;;28.80;101953.00;;;;10433662;28;20209;-80
2022/07/16 09:44:20;;;;;;;2.95;1.23;;;;;29.80;101929.00;;;;10449585;28;20197;-80
2022/07/16 09:49:22;;;;;;;0.75;0.75;;;;;31.40;101933.00;;;;10424505;28;20495;-81
2022/07/16 09:54:30;;;;;;;1.90;0.90;;;;;30.30;101950.00;;;;10437194;28;20272;-80
2022/07/16 09:59:33;;;;;;;1.15;0.85;;;;;28.90;101941.00;;;;10441777;28;20217;-80
2022/07/16 10:04:59;;;;;;;1.60;0.68;;;;;30.40;101952.00;;;;10445050;28;20194;-80
2022/07/16 10:10:06;;;;;;;2.38;0.85;;;;;31.10;101958.00;;;;10435880;28;20186;-81
2022/07/16 10:15:09;;;;;;;1.08;0.90;;;;;30.80;101949.00;;;;10441410;28;20185;-81
2022/07/16 10:20:17;;;;;;;1.08;1.00;;;;;29.40;101960.00;;;;10421267;28;20201;-81
2022/07/16 10:25:22;;;;;;;1.95;1.00;;;;;30.60;101954.00;;;;10447266;28;20199;-81
2022/07/16 10:30:26;;;;;;;2.17;1.02;;;;;31.70;101967.00;;;;10412939;28;20714;-81
2022/07/16 10:35:32;;;;;;;1.48;1.00;;;;;31.10;101967.00;;;;10441353;28;20644;-81
2022/07/16 10:40:37;;;;;;;1.25;1.10;;;;;29.60;101955.00;;;;10454117;28;20198;-81
2022/07/16 10:45:48;;;;;;;0.88;0.88;;;;;30.80;101955.00;;;;10453618;28;20716;-81
2022/07/16 10:51:20;;;;;;;1.88;1.02;;;;;31.00;101967.00;;;;10472671;28;20215;-81
2022/07/16 10:56:31;;;;;;;1.88;0.70;;;;;29.70;101963.00;;;;10424486;28;20672;-81
2022/07/16 11:01:38;;;;;;;0.70;0.70;;;;;29.80;101969.00;;;;10465035;28;20675;-81
2022/07/16 11:06:47;;;;;;;1.20;0.88;;;;;31.40;101965.00;;;;10458762;28;20177;-81
2022/07/16 11:11:50;;;;;;;2.53;1.00;;;;;32.20;101979.00;;;;10431317;28;20191;-80
2022/07/16 11:16:52;;;;;;;2.95;1.15;;;;;31.90;101989.00;;;;10439615;28;20212;-81
2022/07/16 11:22:01;;;;;;;1.45;0.90;;;;;31.30;101969.00;;;;10432534;28;20198;-80
2022/07/16 11:27:05;;;;;;;1.70;1.00;;;;;32.00;101986.00;;;;10450702;28;20206;-81
2022/07/16 11:32:12;;;;;;;0.80;0.77;;;;;32.80;101981.00;;;;10451236;28;20185;-82
2022/07/16 11:37:15;;;;;;;1.63;1.10;;;;;33.30;101985.00;;;;10418898;28;20248;-81
2022/07/16 11:42:22;;;;;;;1.98;0.80;;;;;33.30;101978.00;;;;10426981;28;20598;-80
2022/07/16 11:47:24;;;;;;;1.33;0.98;;;;;33.60;101978.00;;;;10440198;28;20193;-80
2022/07/16 11:52:27;;;;;;;2.33;1.05;;;;;34.10;101978.00;;;;10430513;28;20660;-79
2022/07/16 11:57:29;;;;;;;0.82;0.82;;;;;34.70;101978.00;;;;10422566;28;20312;-79
2022/07/16 12:02:44;;;;;;;2.17;1.15;;;;;34.00;101967.00;;;;10482179;28;20237;-79
2022/07/16 12:07:46;;;;;;;1.42;0.93;;;;;33.80;101972.00;;;;10445360;28;20178;-79
2022/07/16 12:13:11;;;;;;;1.52;0.93;;;;;34.10;101966.00;;;;10397399;28;20200;-79
2022/07/16 12:18:14;;;;;;;1.52;0.82;;;;;34.20;101972.00;;;;10444830;28;20300;-78
2022/07/16 12:23:34;;;;;;;1.92;1.00;;;;;33.70;101966.00;;;;10419399;28;20228;-78
2022/07/16 12:28:36;;;;;;;1.58;1.10;;;;;33.30;101966.00;;;;10428992;28;20193;-77
2022/07/16 12:33:39;;;;;;;3.97;1.42;;;;;32.60;101964.00;;;;10453703;28;20610;-78
2022/07/16 12:38:58;;;;;;;1.23;1.13;;;;;31.20;101985.00;;;;10470679;28;20280;-77
2022/07/16 12:44:05;;;;;;;2.30;1.48;;;;;30.10;101985.00;;;;10426394;28;20536;-77
2022/07/16 12:49:15;;;;;;;1.98;1.23;;;;;32.40;101968.00;;;;10460914;28;20232;-78
2022/07/16 12:54:18;;;;;;;2.55;1.27;;;;;30.60;101985.00;;;;10432288;28;20186;-78
2022/07/16 12:59:22;;;;;;;2.60;1.50;;;;;31.30;101980.00;;;;10433674;28;20621;-78
2022/07/16 13:04:27;;;;;;;1.88;1.15;;;;;31.20;101976.00;;;;10440412;28;20202;-78
2022/07/16 13:09:29;;;;;;;2.33;1.42;;;;;30.50;101979.00;;;;10436208;28;20221;-78
2022/07/16 13:14:32;;;;;;;3.30;1.30;;;;;30.50;101982.00;;;;10449705;28;20182;-78
2022/07/16 13:19:34;;;;;;;4.28;1.50;;;;;31.50;101977.00;;;;10436258;28;20263;-78
2022/07/16 13:24:36;;;;;;;2.15;1.25;;;;;31.90;101984.00;;;;10395622;28;20201;-78
2022/07/16 13:29:39;;;;;;;3.80;1.40;;;;;32.10;101975.00;;;;10461648;28;20174;-78
2022/07/16 13:34:41;;;;;;;2.20;1.38;;;;;30.90;101983.00;;;;10451409;28;20222;-78
2022/07/16 13:39:45;;;;;;;2.80;1.05;;;;;30.80;101989.00;;;;10472399;28;20775;-78
2022/07/16 13:44:47;;;;;;;2.15;1.23;;;;;30.60;101987.00;;;;10462538;28;20284;-78
2022/07/16 13:49:49;;;;;;;1.23;1.13;;;;;31.40;101977.00;;;;10448560;28;20224;-78
2022/07/16 13:54:51;;;;;;;1.67;1.10;;;;;31.40;101974.00;;;;10484387;28;20235;-78
2022/07/16 13:59:54;;;;;;;2.20;1.13;;;;;32.50;101973.00;;;;10472053;28;20231;-78
2022/07/16 14:04:56;;;;;;;2.20;1.30;;;;;32.60;101984.00;;;;10451259;28;20193;-78
2022/07/16 14:09:59;;;;;;;2.13;1.23;;;;;33.60;101978.00;;;;10457937;28;20277;-78
2022/07/16 14:15:01;;;;;;;2.30;1.20;;;;;35.00;101979.00;;;;10448728;28;20197;-79
2022/07/16 14:20:05;;;;;;;3.50;1.83;;;;;32.90;101976.00;;;;10430212;28;20209;-78
2022/07/16 14:25:08;;;;;;;3.75;1.40;;;;;37.00;101969.00;;;;10432635;28;20272;-79
2022/07/16 14:30:11;;;;;;;2.63;1.55;;;;;37.50;101979.00;;;;10451332;28;20235;-78
2022/07/16 14:35:14;;;;;;;1.77;1.55;;;;;38.80;101986.00;;;;10431517;28;20185;-79
2022/07/16 14:40:19;;;;;;;3.10;1.58;;;;;39.40;101981.00;;;;10468437;28;20259;-78
2022/07/16 14:45:23;;;;;;;2.28;1.40;;;;;37.40;101995.00;;;;10422848;28;20190;-79
2022/07/16 14:50:25;;;;;;;2.40;1.35;;;;;37.70;101984.00;;;;10471951;28;20182;-79
2022/07/16 14:55:28;;;;;;;2.38;1.40;;;;;35.30;101966.00;;;;10410416;28;20193;-78
2022/07/16 15:00:30;;;;;;;1.67;1.27;;;;;39.20;101978.00;;;;10443449;28;20668;-79
2022/07/16 15:05:32;;;;;;;2.40;1.90;;;;;39.70;101981.00;;;;10434309;28;20194;-79
2022/07/16 15:10:34;;;;;;;4.25;1.52;;;;;39.50;101971.00;;;;10447962;28;20179;-79
2022/07/16 15:15:36;;;;;;;5.53;1.58;;;;;39.60;101972.00;;;;10452354;28;20199;-79
2022/07/16 15:20:39;;;;;;;1.70;1.48;;;;;40.20;101976.00;;;;10447092;28;20202;-79
2022/07/16 15:25:41;;;;;;;2.47;1.40;;;;;40.10;101976.00;;;;10443506;28;20182;-78
2022/07/16 15:30:44;;;;;;;5.05;1.38;;;;;40.10;101974.00;;;;10449986;28;20221;-79
2022/07/16 15:35:46;;;;;;;2.10;1.65;;;;;40.10;101986.00;;;;10435741;28;20285;-79
2022/07/16 15:40:48;;;;;;;2.35;1.20;;;;;39.50;101992.00;;;;10412713;28;20554;-78
2022/07/16 15:46:06;;;;;;;2.45;1.48;;;;;37.60;101985.00;;;;10468455;28;20220;-78
2022/07/16 15:51:08;;;;;;;2.45;1.40;;;;;34.40;101995.00;;;;10431055;28;20221;-78
2022/07/16 15:56:10;;;;;;;2.50;1.35;;;;;30.50;101989.00;;;;10435715;28;20546;-78
2022/07/16 16:01:13;;;;;;;4.82;1.58;;;;;28.80;102002.00;;;;10432594;28;20230;-78
2022/07/16 16:06:20;;;;;;;2.92;1.30;;;;;28.20;101987.00;;;;10399401;28;20197;-78
2022/07/16 16:11:28;;;;;;;1.90;1.40;;;;;27.30;101988.00;;;;10452391;28;20198;-78
2022/07/16 16:16:31;;;;;;;4.35;2.03;;;;;26.70;101981.00;;;;10440110;28;20205;-78
2022/07/16 16:21:33;;;;;;;2.47;2.10;;;;;26.50;101986.00;;;;10423542;28;20263;-77
2022/07/16 16:26:35;;;;;;;2.45;1.67;;;;;26.20;101995.00;;;;10431476;28;20189;-78
2022/07/16 16:31:37;;;;;;;3.90;1.40;;;;;26.10;101995.00;;;;10438955;28;20296;-79
2022/07/16 16:36:39;;;;;;;3.35;1.50;;;;;25.70;101997.00;;;;10408345;28;20297;-78
2022/07/16 16:41:42;;;;;;;1.30;1.10;;;;;25.60;101988.00;;;;10462841;28;20201;-78
2022/07/16 16:46:44;;;;;;;2.28;1.50;;;;;25.40;102002.00;;;;10468023;28;20181;-79
2022/07/16 16:51:47;;;;;;;1.48;1.25;;;;;25.30;102003.00;;;;10439224;28;20272;-78
2022/07/16 16:56:49;;;;;;;2.00;1.30;;;;;25.20;102001.00;;;;10455137;28;20217;-79
2022/07/16 17:01:55;;;;;;;6.47;1.50;;;;;24.90;102004.00;;;;10414085;28;20241;-78
2022/07/16 17:07:01;;;;;;;3.35;1.40;;;;;24.80;102011.00;;;;10435028;28;20272;-79
2022/07/16 17:12:05;;;;;;;1.60;1.50;;;;;24.80;102009.00;;;;10431835;28;20731;-79
2022/07/16 17:17:08;;;;;;;2.78;1.13;;;;;24.60;102018.00;;;;10421355;28;20232;-79
2022/07/16 17:22:10;;;;;;;3.63;2.00;;;;;24.30;102012.00;;;;10441679;28;20239;-78
2022/07/16 17:27:12;;;;;;;1.85;1.30;;;;;24.20;102014.00;;;;10473652;28;20213;-79
2022/07/16 17:32:14;;;;;;;1.38;1.13;;;;;24.10;102007.00;;;;10427729;28;20202;-79
2022/07/16 17:37:17;;;;;;;3.03;1.70;;;;;23.90;102015.00;;;;10460746;28;20552;-79
2022/07/16 17:42:19;;;;;;;3.08;1.60;;;;;23.80;102017.00;;;;10476538;28;20198;-80
2022/07/16 17:47:21;;;;;;;3.15;1.73;;;;;23.70;102022.00;;;;10434539;28;20588;-79
2022/07/16 17:52:26;;;;;;;2.38;1.60;;;;;23.50;102034.00;;;;10447863;28;20224;-79
2022/07/16 17:57:28;;;;;;;3.78;1.50;;;;;23.40;102035.00;;;;10458153;28;20348;-80
2022/07/16 18:02:30;;;;;;;1.80;1.25;;;;;23.30;102037.00;;;;10433184;28;20218;-80
2022/07/16 18:07:32;;;;;;;2.25;1.63;;;;;23.20;102033.00;;;;10469433;28;20221;-80
2022/07/16 18:12:35;;;;;;;1.77;1.40;;;;;23.00;102047.00;;;;10465329;28;20198;-80
2022/07/16 18:17:38;;;;;;;1.58;1.35;;;;;22.90;102038.00;;;;10467263;28;20667;-80
2022/07/16 18:22:40;;;;;;;2.22;1.10;;;;;22.70;102046.00;;;;10423242;28;20225;-80
2022/07/16 18:27:43;;;;;;;3.60;1.50;;;;;22.60;102050.00;;;;10445360;28;20190;-80
2022/07/16 18:32:45;;;;;;;3.28;1.30;;;;;22.50;102051.00;;;;10424867;28;20225;-79
2022/07/16 18:37:47;;;;;;;1.90;1.20;;;;;22.30;102058.00;;;;10443340;28;20225;-80
2022/07/16 18:42:49;;;;;;;1.80;1.40;;;;;22.20;102055.00;;;;10409457;28;20198;-80
2022/07/16 18:47:52;;;;;;;2.40;1.50;;;;;22.00;102056.00;;;;10482462;28;20186;-80
2022/07/16 18:52:54;;;;;;;3.30;1.58;;;;;21.90;102064.00;;;;10444239;28;20228;-80
2022/07/16 18:57:56;;;;;;;3.60;1.35;;;;;21.70;102071.00;;;;10456511;28;20225;-79
2022/07/16 19:02:57;;;;;;;4.63;1.60;;;;;21.60;102077.00;;;;10456295;28;20213;-79
2022/07/16 19:07:59;;;;;;;2.88;1.20;;;;;21.40;102070.00;;;;10424541;28;20197;-79
2022/07/16 19:13:03;;;;;;;4.35;1.35;;;;;21.10;102082.00;;;;10443689;28;20193;-79
2022/07/16 19:18:05;;;;;;;2.38;1.27;;;;;20.90;102083.00;;;;10440065;28;20218;-79
2022/07/16 19:23:11;;;;;;;2.42;1.55;;;;;20.70;102087.00;;;;10408990;28;20267;-79
2022/07/16 19:28:14;;;;;;;6.22;1.65;;;;;20.60;102079.00;;;;10437443;28;20220;-79
2022/07/16 19:33:16;;;;;;;2.05;1.25;;;;;20.30;102081.00;;;;10413787;28;20560;-79
2022/07/16 19:38:18;;;;;;;2.90;1.40;;;;;20.10;102087.00;;;;10448144;28;20218;-79
2022/07/16 19:43:20;;;;;;;2.88;1.48;;;;;19.90;102094.00;;;;10408399;28;20198;-79
2022/07/16 19:48:22;;;;;;;3.85;1.67;;;;;19.60;102088.00;;;;10438284;28;20202;-79
2022/07/16 19:53:24;;;;;;;5.57;1.23;;;;;19.40;102105.00;;;;10421893;28;20194;-79
2022/07/16 19:58:26;;;;;;;2.45;1.38;;;;;19.20;102102.00;;;;10435790;28;20221;-79
2022/07/16 20:03:28;;;;;;;4.72;1.77;;;;;19.00;102111.00;;;;10488962;28;20194;-79
2022/07/16 20:08:56;;;;;;;3.10;1.73;;;;;18.80;102122.00;;;;10416285;28;20653;-81
2022/07/16 20:13:58;;;;;;;3.67;1.70;;;;;18.70;102128.00;;;;10445641;28;20227;-81
2022/07/16 20:19:03;;;;;;;3.28;1.58;;;;;18.60;102134.00;;;;10422311;28;20209;-81
2022/07/16 20:24:06;;;;;;;3.67;1.70;;;;;18.40;102138.00;;;;10442679;28;20239;-80
2022/07/16 20:29:08;;;;;;;6.15;1.58;;;;;18.30;102145.00;;;;10446210;28;20193;-80
2022/07/16 20:34:10;;;;;;;5.43;1.50;;;;;18.20;102147.00;;;;10446666;28;20207;-80
2022/07/16 20:39:12;;;;;;;2.65;1.80;;;;;18.10;102139.00;;;;10420021;28;20209;-80
2022/07/16 20:44:15;;;;;;;2.63;1.33;;;;;17.90;102143.00;;;;10451208;28;20186;-80
2022/07/16 20:49:17;;;;;;;2.72;1.60;;;;;17.80;102137.00;;;;10453393;28;20679;-80
2022/07/16 20:54:19;;;;;;;5.28;1.60;;;;;17.70;102142.00;;;;10430535;28;20202;-80
2022/07/16 20:59:21;;;;;;;2.70;1.53;;;;;17.60;102154.00;;;;10427658;28;20233;-80
2022/07/16 21:04:44;;;;;;;2.17;1.40;;;;;17.50;102151.00;;;;10446833;28;20202;-81
2022/07/16 21:09:46;;;;;;;3.30;1.52;;;;;17.40;102146.00;;;;10433268;28;20284;-80
2022/07/16 21:14:54;;;;;;;6.63;1.87;;;;;17.30;102153.00;;;;10433633;28;20189;-81
2022/07/16 21:19:56;;;;;;;3.37;1.57;;;;;17.20;102147.00;;;;10417586;28;20256;-80
2022/07/16 21:24:58;;;;;;;2.90;1.50;;;;;17.10;102154.00;;;;10437280;28;20185;-80
2022/07/16 21:30:00;;;;;;;3.90;1.63;;;;;17.00;102165.00;;;;10434250;28;20296;-80
2022/07/16 21:35:02;;;;;;;3.47;1.77;;;;;16.90;102164.00;;;;10418893;28;20194;-80
2022/07/16 21:40:04;;;;;;;5.37;1.90;;;;;16.80;102166.00;;;;10422167;28;20667;-80
2022/07/16 21:45:07;;;;;;;3.33;1.60;;;;;16.70;102166.00;;;;10465362;28;20604;-80
2022/07/16 21:50:10;;;;;;;4.93;2.00;;;;;16.60;102172.00;;;;10434674;28;20273;-80
2022/07/16 21:55:12;;;;;;;5.03;1.70;;;;;16.40;102166.00;;;;10449263;28;20193;-80
2022/07/16 22:00:21;;;;;;;3.20;1.30;;;;;16.30;102185.00;;;;10467000;28;20259;-79
2022/07/16 22:05:23;;;;;;;4.03;1.83;;;;;16.10;102179.00;;;;10447702;28;20224;-80
2022/07/16 22:10:25;;;;;;;5.97;2.30;;;;;15.90;102188.00;;;;10421578;28;20210;-80
2022/07/16 22:15:27;;;;;;;3.57;1.93;;;;;15.90;102182.00;;;;10450135;28;20292;-80
2022/07/16 22:25:52;;;;;;;5.00;1.97;;;;;15.70;102178.00;;;;10465914;28;20185;-80
2022/07/16 22:30:54;;;;;;;4.77;1.80;;;;;15.60;102181.00;;;;10469125;28;20262;-80
2022/07/16 22:35:56;;;;;;;6.30;1.57;;;;;15.50;102175.00;;;;10448461;28;20205;-80
2022/07/16 22:40:58;;;;;;;3.50;1.83;;;;;15.30;102178.00;;;;10465796;28;20203;-80
2022/07/16 22:46:00;;;;;;;2.30;1.63;;;;;15.20;102173.00;;;;10450330;28;20193;-80
2022/07/16 22:51:02;;;;;;;3.20;1.90;;;;;15.10;102174.00;;;;10449490;28;20211;-80
2022/07/16 22:56:05;;;;;;;8.80;2.23;;;;;15.00;102177.00;;;;10448082;28;20209;-80
2022/07/16 23:01:07;;;;;;;6.80;1.83;;;;;14.90;102183.00;;;;10462691;28;20304;-80
2022/07/16 23:06:09;;;;;;;5.03;1.80;;;;;14.80;102176.00;;;;10444918;28;20185;-80
2022/07/16 23:11:12;;;;;;;4.80;1.83;;;;;14.70;102165.00;;;;10427352;28;20556;-80
2022/07/16 23:16:14;;;;;;;3.93;1.90;;;;;14.70;102170.00;;;;10436123;28;20201;-80
2022/07/16 23:21:17;;;;;;;3.60;2.20;;;;;14.60;102173.00;;;;10445238;28;20255;-80
2022/07/16 23:26:19;;;;;;;2.70;1.80;;;;;14.50;102169.00;;;;10447184;28;20217;-79
2022/07/16 23:31:21;;;;;;;7.60;2.03;;;;;14.50;102174.00;;;;10425165;28;20196;-80
2022/07/16 23:36:23;;;;;;;5.03;2.00;;;;;14.40;102175.00;;;;10418678;28;20789;-80
2022/07/16 23:41:25;;;;;;;4.40;1.77;;;;;14.30;102182.00;;;;10419933;28;20765;-80
2022/07/16 23:46:28;;;;;;;10.43;2.30;;;;;14.30;102162.00;;;;10468812;28;20201;-80
2022/07/16 23:51:34;;;;;;;5.33;2.13;;;;;14.20;102171.00;;;;10420286;28;20202;-80
2022/07/16 23:56:35;;;;;;;6.77;1.70;;;;;14.10;102162.00;;;;10405285;28;20198;-79
